Hoquiam, WA

7:23 PM PDT on September 21, 2014 (GMT -0700)
Bowerman | Change Station
CLOSE
Current Station
Airport
Location: Hoquiam,
Elevation: 13 ft
Nearby Weather Stations

Elev 13 ft 46.97 °N, 123.93 °W | Updated 30 minutes ago

Overcast
Overcast
61 °F
Feels Like 61 °F
N
7
Wind Variable Wind from South

Today
High -- | Low -- °F
--% Chance of Precip.
Yesterday
High -- | Low -- °F
Precip. -- in
7:01 AM 7:15 PM
Waning Crescent, 4% visible
Pressure 29.94 in
Visibility 4.0 miles
Clouds Overcast 800 ft
Dew Point 60 °F
Humidity 97%
Rainfall 0.00 in
Snow Depth 1 in , 0 in , 0 in
UV 0 out of 12
Pollen 2.20 out of 12
PM2.5 Good
Flu Activity Not available.
METAR KHQM 220153Z AUTO 19006KT 4SM BR OVC008 16/16 A2993 RMK AO2 CIG 004V011 SLP138 T01610156

More Conditions Fewer Conditions

Pressure 29.94 in
Visibility 4.0 miles
Clouds Overcast 800 ft
Dew Point 60 °F
Humidity 97%
Rainfall 0.00 in
Snow Depth 1 in , 0 in , 0 in
UV 0 out of 12
Pollen 2.20 out of 12
PM2.5 Good
Flu Activity Not available.
METAR KHQM 220153Z AUTO 19006KT 4SM BR OVC008 16/16 A2993 RMK AO2 CIG 004V011 SLP138 T01610156

More Conditions Fewer Conditions

10-Day Weather Forecast

Almanac

Astronomy

Sep. 21, 2014 Rise Set
Actual Time 7:01 AM PDT 7:15 PM PDT
Civil Twilight 6:30 AM PDT 7:45 PM PDT
Nautical Twilight 5:55 AM PDT 8:21 PM PDT
Astronomical Twilight 5:18 AM PDT 8:58 PM PDT
Moon 4:33 AM PDT (9/21) 5:59 PM PDT (9/21)
Length of Visible Light 13h 14m
Length of Day
12h 13m
Tomorrow will be 3m 20s shorter.
Waning Crescent, 4% of the Moon is Illuminated
Today
Waning Crescent
Sep 24
New
Oct 1
First Quarter
Oct 8
Full
Oct 15
Last Quarter

Today's Extremes

State Highs State Lows

Community

WunderPhotos

Upload Photos

1,755,364 photos uploaded!

WunderBlogs® & News

Nearby

Air Quality

  Air Quality AQ Index Pollutant
Yesterday Good
PM2.5
Current Good
PM2.5

Snow Depth

Station Depth Elevation
Moses Mountain 1 in 5300 ft
Burnt Mountain 0 in 4200 ft
Meadows Pass 0 in 3500 ft
Grouse Camp 0 in 5380 ft
Rainy Pass 0 in 4780 ft

Earthquake Activity

City Distance Mag. Time & Date
No recent earthquake activity has been reported nearby.
Minimum magnitude displayed is 2.5.

Coastal Water Temperatures

Place Temperature
Westport, WA 60.1 °F
Tacoma, WA 55.9 °F
Seattle, WA 55.9 °F
Astoria, OR 64.9 °F

Nearby Weather Stations